sensor_id;sensor_type;location;lat;lon;timestamp;pressure;altitude;pressure_sealevel;temperature;humidity
66703;BME280;60933;46.398;-63.798;2023-01-29T00:02:09;101800.59;;;-0.10;76.77
66703;BME280;60933;46.398;-63.798;2023-01-29T00:04:35;101802.22;;;-0.12;77.05
66703;BME280;60933;46.398;-63.798;2023-01-29T00:07:01;101805.78;;;-0.07;76.59
66703;BME280;60933;46.398;-63.798;2023-01-29T00:09:27;101814.28;;;-0.07;76.16
66703;BME280;60933;46.398;-63.798;2023-01-29T00:11:56;101813.50;;;-0.04;76.47
66703;BME280;60933;46.398;-63.798;2023-01-29T00:14:22;101813.50;;;-0.04;77.06
66703;BME280;60933;46.398;-63.798;2023-01-29T00:16:48;101831.28;;;-0.04;76.75
66703;BME280;60933;46.398;-63.798;2023-01-29T00:19:14;101845.53;;;-0.08;77.46
66703;BME280;60933;46.398;-63.798;2023-01-29T00:21:43;101846.06;;;-0.17;78.19
66703;BME280;60933;46.398;-63.798;2023-01-29T00:24:10;101867.22;;;-0.16;76.89
66703;BME280;60933;46.398;-63.798;2023-01-29T00:26:45;101865.28;;;-0.23;76.85
66703;BME280;60933;46.398;-63.798;2023-01-29T00:29:11;101862.75;;;-0.23;77.60
66703;BME280;60933;46.398;-63.798;2023-01-29T00:31:46;101859.41;;;-0.22;77.13
66703;BME280;60933;46.398;-63.798;2023-01-29T00:34:12;101839.91;;;-0.23;76.63
66703;BME280;60933;46.398;-63.798;2023-01-29T00:36:41;101843.16;;;-0.27;77.19
66703;BME280;60933;46.398;-63.798;2023-01-29T00:39:10;101844.13;;;-0.24;77.05
66703;BME280;60933;46.398;-63.798;2023-01-29T00:41:39;101853.16;;;-0.30;77.99
66703;BME280;60933;46.398;-63.798;2023-01-29T00:44:24;101840.31;;;-0.35;78.87
66703;BME280;60933;46.398;-63.798;2023-01-29T00:47:11;101849.78;;;-0.31;77.99
66703;BME280;60933;46.398;-63.798;2023-01-29T00:50:04;101847.25;;;-0.31;78.49
66703;BME280;60933;46.398;-63.798;2023-01-29T00:52:33;101852.34;;;-0.29;78.76
66703;BME280;60933;46.398;-63.798;2023-01-29T00:55:03;101849.66;;;-0.34;78.83
66703;BME280;60933;46.398;-63.798;2023-01-29T00:57:33;101852.06;;;-0.37;78.38
66703;BME280;60933;46.398;-63.798;2023-01-29T01:00:07;101842.66;;;-0.40;78.44
66703;BME280;60933;46.398;-63.798;2023-01-29T01:02:37;101850.75;;;-0.50;79.00
66703;BME280;60933;46.398;-63.798;2023-01-29T01:05:46;101856.63;;;-0.51;80.17
66703;BME280;60933;46.398;-63.798;2023-01-29T01:08:33;101857.06;;;-0.61;79.95
66703;BME280;60933;46.398;-63.798;2023-01-29T01:11:18;101853.34;;;-0.70;80.34
66703;BME280;60933;46.398;-63.798;2023-01-29T01:13:50;101881.28;;;-0.68;80.93
66703;BME280;60933;46.398;-63.798;2023-01-29T01:16:17;101879.47;;;-0.72;80.65
66703;BME280;60933;46.398;-63.798;2023-01-29T01:18:44;101881.75;;;-0.78;79.73
66703;BME280;60933;46.398;-63.798;2023-01-29T01:21:10;101877.59;;;-0.76;79.60
66703;BME280;60933;46.398;-63.798;2023-01-29T01:23:36;101885.16;;;-0.78;78.35
66703;BME280;60933;46.398;-63.798;2023-01-29T01:26:08;101886.69;;;-0.82;79.20
66703;BME280;60933;46.398;-63.798;2023-01-29T01:28:34;101888.28;;;-0.84;79.95
66703;BME280;60933;46.398;-63.798;2023-01-29T01:31:07;101889.97;;;-0.84;79.16
66703;BME280;60933;46.398;-63.798;2023-01-29T01:33:33;101884.06;;;-0.85;78.40
66703;BME280;60933;46.398;-63.798;2023-01-29T01:36:01;101844.56;;;-0.99;79.13
66703;BME280;60933;46.398;-63.798;2023-01-29T01:38:28;101869.44;;;-0.90;80.63
66703;BME280;60933;46.398;-63.798;2023-01-29T01:40:54;101875.25;;;-0.93;79.11
66703;BME280;60933;46.398;-63.798;2023-01-29T01:43:20;101893.13;;;-0.90;81.53
66703;BME280;60933;46.398;-63.798;2023-01-29T01:45:46;101885.31;;;-0.94;79.60
66703;BME280;60933;46.398;-63.798;2023-01-29T01:48:20;101885.50;;;-0.90;78.71
66703;BME280;60933;46.398;-63.798;2023-01-29T01:53:29;101899.91;;;-0.89;78.48
66703;BME280;60933;46.398;-63.798;2023-01-29T01:56:04;101898.31;;;-0.87;77.63
66703;BME280;60933;46.398;-63.798;2023-01-29T01:58:34;101893.13;;;-0.90;79.08
66703;BME280;60933;46.398;-63.798;2023-01-29T02:01:06;101904.75;;;-0.95;78.90
66703;BME280;60933;46.398;-63.798;2023-01-29T02:03:53;101903.81;;;-0.97;77.74
66703;BME280;60933;46.398;-63.798;2023-01-29T02:06:39;101913.16;;;-0.96;79.40
66703;BME280;60933;46.398;-63.798;2023-01-29T02:10:20;101911.31;;;-1.00;80.76
66703;BME280;60933;46.398;-63.798;2023-01-29T02:12:39;101911.13;;;-1.05;81.64
66703;BME280;60933;46.398;-63.798;2023-01-29T02:15:07;101910.81;;;-1.11;80.74
66703;BME280;60933;46.398;-63.798;2023-01-29T02:17:34;101914.91;;;-1.15;80.06
66703;BME280;60933;46.398;-63.798;2023-01-29T02:33:20;101927.84;;;-1.08;77.69
66703;BME280;60933;46.398;-63.798;2023-01-29T02:42:24;101923.97;;;-1.00;78.51
66703;BME280;60933;46.398;-63.798;2023-01-29T02:44:59;101924.78;;;-1.01;78.47
66703;BME280;60933;46.398;-63.798;2023-01-29T02:50:15;101920.56;;;-1.01;78.42
66703;BME280;60933;46.398;-63.798;2023-01-29T02:53:00;101919.56;;;-1.04;80.47
66703;BME280;60933;46.398;-63.798;2023-01-29T02:55:39;101915.03;;;-1.12;82.54
66703;BME280;60933;46.398;-63.798;2023-01-29T03:00:47;101924.03;;;-1.18;84.78
66703;BME280;60933;46.398;-63.798;2023-01-29T03:03:17;101933.31;;;-1.19;84.89
66703;BME280;60933;46.398;-63.798;2023-01-29T03:05:51;101943.31;;;-1.22;84.82
66703;BME280;60933;46.398;-63.798;2023-01-29T03:08:39;101941.53;;;-1.24;85.43
66703;BME280;60933;46.398;-63.798;2023-01-29T03:11:12;101942.66;;;-1.18;84.82
66703;BME280;60933;46.398;-63.798;2023-01-29T03:13:46;101950.53;;;-1.12;84.94
66703;BME280;60933;46.398;-63.798;2023-01-29T03:18:54;101945.97;;;-0.99;84.17
66703;BME280;60933;46.398;-63.798;2023-01-29T03:21:35;101963.84;;;-0.96;83.97
66703;BME280;60933;46.398;-63.798;2023-01-29T03:27:48;101959.38;;;-0.82;82.40
66703;BME280;60933;46.398;-63.798;2023-01-29T03:30:57;101989.28;;;-0.73;81.82
66703;BME280;60933;46.398;-63.798;2023-01-29T03:33:49;101991.84;;;-0.73;81.07
66703;BME280;60933;46.398;-63.798;2023-01-29T03:36:22;101974.81;;;-0.76;81.16
66703;BME280;60933;46.398;-63.798;2023-01-29T03:38:49;101976.47;;;-0.76;81.21
66703;BME280;60933;46.398;-63.798;2023-01-29T03:41:27;101982.38;;;-0.77;81.00
66703;BME280;60933;46.398;-63.798;2023-01-29T03:44:11;101980.50;;;-0.82;81.02
66703;BME280;60933;46.398;-63.798;2023-01-29T03:47:03;101964.91;;;-0.91;80.82
66703;BME280;60933;46.398;-63.798;2023-01-29T03:49:50;101975.19;;;-0.88;80.75
66703;BME280;60933;46.398;-63.798;2023-01-29T03:52:34;101970.66;;;-0.95;80.63
66703;BME280;60933;46.398;-63.798;2023-01-29T04:00:27;101964.53;;;-1.00;81.88
66703;BME280;60933;46.398;-63.798;2023-01-29T04:05:26;101972.94;;;-1.01;81.25
66703;BME280;60933;46.398;-63.798;2023-01-29T04:08:07;101975.06;;;-1.10;81.94
66703;BME280;60933;46.398;-63.798;2023-01-29T04:10:38;101982.06;;;-1.05;80.85
66703;BME280;60933;46.398;-63.798;2023-01-29T04:13:09;101978.34;;;-1.13;81.21
66703;BME280;60933;46.398;-63.798;2023-01-29T04:15:42;102003.88;;;-1.08;81.17
66703;BME280;60933;46.398;-63.798;2023-01-29T04:18:10;101994.66;;;-1.06;81.34
66703;BME280;60933;46.398;-63.798;2023-01-29T04:20:36;101993.34;;;-1.18;80.84
66703;BME280;60933;46.398;-63.798;2023-01-29T04:23:05;102023.63;;;-1.01;80.96
66703;BME280;60933;46.398;-63.798;2023-01-29T04:25:42;102007.63;;;-1.00;80.49
66703;BME280;60933;46.398;-63.798;2023-01-29T04:28:20;102021.22;;;-0.98;79.92
66703;BME280;60933;46.398;-63.798;2023-01-29T04:33:33;102025.41;;;-0.99;79.62
66703;BME280;60933;46.398;-63.798;2023-01-29T04:36:37;102014.34;;;-1.01;80.13
66703;BME280;60933;46.398;-63.798;2023-01-29T04:44:07;102031.03;;;-1.06;78.86
66703;BME280;60933;46.398;-63.798;2023-01-29T04:55:31;102056.97;;;-1.12;76.87
66703;BME280;60933;46.398;-63.798;2023-01-29T05:00:40;102071.91;;;-1.18;77.03
66703;BME280;60933;46.398;-63.798;2023-01-29T05:03:07;102081.63;;;-1.27;77.33
66703;BME280;60933;46.398;-63.798;2023-01-29T05:05:35;102109.47;;;-1.27;77.28
66703;BME280;60933;46.398;-63.798;2023-01-29T05:08:02;102100.88;;;-1.31;77.10
66703;BME280;60933;46.398;-63.798;2023-01-29T05:10:29;102098.34;;;-1.31;76.83
66703;BME280;60933;46.398;-63.798;2023-01-29T05:13:04;102103.41;;;-1.31;75.80
66703;BME280;60933;46.398;-63.798;2023-01-29T05:15:41;102094.66;;;-1.37;76.21
66703;BME280;60933;46.398;-63.798;2023-01-29T05:18:09;102115.81;;;-1.37;76.66
66703;BME280;60933;46.398;-63.798;2023-01-29T05:20:37;102118.97;;;-1.41;77.04
66703;BME280;60933;46.398;-63.798;2023-01-29T05:23:07;102115.66;;;-1.40;76.79
66703;BME280;60933;46.398;-63.798;2023-01-29T05:25:34;102108.84;;;-1.41;76.10
66703;BME280;60933;46.398;-63.798;2023-01-29T05:28:00;102118.84;;;-1.44;75.67
66703;BME280;60933;46.398;-63.798;2023-01-29T05:30:44;102117.84;;;-1.48;75.18
66703;BME280;60933;46.398;-63.798;2023-01-29T05:33:27;102124.31;;;-1.53;74.47
66703;BME280;60933;46.398;-63.798;2023-01-29T05:35:55;102168.03;;;-1.57;73.96
66703;BME280;60933;46.398;-63.798;2023-01-29T05:38:22;102144.53;;;-1.54;73.84
66703;BME280;60933;46.398;-63.798;2023-01-29T05:40:48;102145.91;;;-1.61;73.90
66703;BME280;60933;46.398;-63.798;2023-01-29T05:43:19;102145.03;;;-1.62;73.45
66703;BME280;60933;46.398;-63.798;2023-01-29T05:45:57;102163.31;;;-1.67;73.81
66703;BME280;60933;46.398;-63.798;2023-01-29T05:48:24;102152.41;;;-1.66;73.58
66703;BME280;60933;46.398;-63.798;2023-01-29T05:50:50;102172.44;;;-1.71;71.85
66703;BME280;60933;46.398;-63.798;2023-01-29T05:53:16;102173.88;;;-1.76;70.29
66703;BME280;60933;46.398;-63.798;2023-01-29T05:55:46;102169.78;;;-1.74;69.72
66703;BME280;60933;46.398;-63.798;2023-01-29T05:58:12;102183.94;;;-1.78;68.39
66703;BME280;60933;46.398;-63.798;2023-01-29T06:00:39;102160.94;;;-1.82;67.36
66703;BME280;60933;46.398;-63.798;2023-01-29T06:03:06;102176.13;;;-1.82;67.12
66703;BME280;60933;46.398;-63.798;2023-01-29T06:05:32;102170.03;;;-1.86;66.42
66703;BME280;60933;46.398;-63.798;2023-01-29T06:07:58;102162.94;;;-1.93;65.91
66703;BME280;60933;46.398;-63.798;2023-01-29T06:10:23;102179.28;;;-1.86;65.96
66703;BME280;60933;46.398;-63.798;2023-01-29T06:12:49;102183.03;;;-1.96;64.24
66703;BME280;60933;46.398;-63.798;2023-01-29T06:15:15;102216.00;;;-1.95;64.91
66703;BME280;60933;46.398;-63.798;2023-01-29T06:17:41;102211.66;;;-1.97;63.51
66703;BME280;60933;46.398;-63.798;2023-01-29T06:20:08;102210.72;;;-1.99;63.86
66703;BME280;60933;46.398;-63.798;2023-01-29T06:22:34;102235.22;;;-1.98;63.76
66703;BME280;60933;46.398;-63.798;2023-01-29T06:25:00;102226.84;;;-1.97;64.27
66703;BME280;60933;46.398;-63.798;2023-01-29T06:27:26;102223.50;;;-1.96;63.52
66703;BME280;60933;46.398;-63.798;2023-01-29T06:29:52;102242.81;;;-1.98;63.08
66703;BME280;60933;46.398;-63.798;2023-01-29T06:32:18;102235.06;;;-2.01;62.91
66703;BME280;60933;46.398;-63.798;2023-01-29T06:34:44;102251.84;;;-2.03;63.51
66703;BME280;60933;46.398;-63.798;2023-01-29T06:37:10;102249.94;;;-2.08;63.61
66703;BME280;60933;46.398;-63.798;2023-01-29T06:39:36;102257.53;;;-2.08;62.80
66703;BME280;60933;46.398;-63.798;2023-01-29T06:42:02;102271.59;;;-2.13;63.65
66703;BME280;60933;46.398;-63.798;2023-01-29T06:44:28;102271.59;;;-2.13;64.63
66703;BME280;60933;46.398;-63.798;2023-01-29T06:46:54;102287.50;;;-2.15;64.92
66703;BME280;60933;46.398;-63.798;2023-01-29T06:49:20;102302.59;;;-2.17;66.14
66703;BME280;60933;46.398;-63.798;2023-01-29T06:51:46;102289.78;;;-2.20;66.67
66703;BME280;60933;46.398;-63.798;2023-01-29T06:54:12;102305.59;;;-2.24;67.20
66703;BME280;60933;46.398;-63.798;2023-01-29T06:56:38;102302.19;;;-2.25;68.33
66703;BME280;60933;46.398;-63.798;2023-01-29T06:59:04;102304.47;;;-2.29;68.86
66703;BME280;60933;46.398;-63.798;2023-01-29T07:01:30;102315.16;;;-2.35;70.39
66703;BME280;60933;46.398;-63.798;2023-01-29T07:03:56;102319.25;;;-2.37;71.87
66703;BME280;60933;46.398;-63.798;2023-01-29T07:06:31;102325.94;;;-2.38;72.27
66703;BME280;60933;46.398;-63.798;2023-01-29T07:08:57;102320.88;;;-2.38;72.47
66703;BME280;60933;46.398;-63.798;2023-01-29T07:11:23;102316.22;;;-2.46;72.80
66703;BME280;60933;46.398;-63.798;2023-01-29T07:13:49;102323.19;;;-2.42;72.75
66703;BME280;60933;46.398;-63.798;2023-01-29T07:16:15;102335.75;;;-2.44;72.61
66703;BME280;60933;46.398;-63.798;2023-01-29T07:18:43;102331.56;;;-2.43;72.29
66703;BME280;60933;46.398;-63.798;2023-01-29T07:21:09;102350.78;;;-2.47;72.10
66703;BME280;60933;46.398;-63.798;2023-01-29T07:23:36;102351.69;;;-2.45;70.77
66703;BME280;60933;46.398;-63.798;2023-01-29T07:26:04;102360.25;;;-2.43;69.21
66703;BME280;60933;46.398;-63.798;2023-01-29T07:28:30;102354.22;;;-2.45;68.30
66703;BME280;60933;46.398;-63.798;2023-01-29T07:30:56;102356.69;;;-2.46;67.88
66703;BME280;60933;46.398;-63.798;2023-01-29T07:33:22;102342.94;;;-2.51;68.64
66703;BME280;60933;46.398;-63.798;2023-01-29T07:35:49;102357.06;;;-2.55;67.00
66703;BME280;60933;46.398;-63.798;2023-01-29T07:38:15;102359.59;;;-2.55;66.83
66703;BME280;60933;46.398;-63.798;2023-01-29T07:40:41;102345.91;;;-2.59;66.36
66703;BME280;60933;46.398;-63.798;2023-01-29T07:43:08;102352.72;;;-2.58;67.21
66703;BME280;60933;46.398;-63.798;2023-01-29T07:45:35;102350.06;;;-2.59;66.53
66703;BME280;60933;46.398;-63.798;2023-01-29T07:48:03;102366.84;;;-2.61;66.08
66703;BME280;60933;46.398;-63.798;2023-01-29T07:50:33;102366.84;;;-2.61;65.92
66703;BME280;60933;46.398;-63.798;2023-01-29T07:53:00;102371.78;;;-2.63;65.90
66703;BME280;60933;46.398;-63.798;2023-01-29T07:55:26;102370.75;;;-2.66;66.14
66703;BME280;60933;46.398;-63.798;2023-01-29T07:58:02;102379.31;;;-2.64;65.55
66703;BME280;60933;46.398;-63.798;2023-01-29T08:00:29;102391.94;;;-2.64;64.73
66703;BME280;60933;46.398;-63.798;2023-01-29T08:03:04;102397.44;;;-2.72;64.82
66703;BME280;60933;46.398;-63.798;2023-01-29T08:05:30;102403.63;;;-2.66;64.57
66703;BME280;60933;46.398;-63.798;2023-01-29T08:07:56;102406.41;;;-2.62;64.08
66703;BME280;60933;46.398;-63.798;2023-01-29T08:10:22;102401.34;;;-2.62;64.94
66703;BME280;60933;46.398;-63.798;2023-01-29T08:12:56;102399.44;;;-2.66;64.50
66703;BME280;60933;46.398;-63.798;2023-01-29T08:15:23;102422.47;;;-2.61;65.60
66703;BME280;60933;46.398;-63.798;2023-01-29T08:17:49;102418.97;;;-2.63;65.39
66703;BME280;60933;46.398;-63.798;2023-01-29T08:20:16;102423.69;;;-2.69;65.44
66703;BME280;60933;46.398;-63.798;2023-01-29T08:22:42;102432.13;;;-2.69;64.77
66703;BME280;60933;46.398;-63.798;2023-01-29T08:25:08;102428.56;;;-2.73;62.34
66703;BME280;60933;46.398;-63.798;2023-01-29T08:27:34;102427.44;;;-2.78;59.95
66703;BME280;60933;46.398;-63.798;2023-01-29T08:30:00;102437.69;;;-2.75;58.87
66703;BME280;60933;46.398;-63.798;2023-01-29T08:32:26;102439.28;;;-2.77;59.07
66703;BME280;60933;46.398;-63.798;2023-01-29T08:34:52;102452.78;;;-2.76;59.67
66703;BME280;60933;46.398;-63.798;2023-01-29T08:37:18;102443.38;;;-2.79;59.36
66703;BME280;60933;46.398;-63.798;2023-01-29T08:39:44;102460.72;;;-2.85;59.52
66703;BME280;60933;46.398;-63.798;2023-01-29T08:42:10;102467.41;;;-2.86;59.66
66703;BME280;60933;46.398;-63.798;2023-01-29T08:44:36;102482.59;;;-2.86;60.74
66703;BME280;60933;46.398;-63.798;2023-01-29T08:47:02;102483.97;;;-2.91;59.73
66703;BME280;60933;46.398;-63.798;2023-01-29T08:49:28;102486.50;;;-2.91;61.33
66703;BME280;60933;46.398;-63.798;2023-01-29T08:51:54;102494.78;;;-2.93;60.96
66703;BME280;60933;46.398;-63.798;2023-01-29T08:54:22;102500.44;;;-2.97;61.47
66703;BME280;60933;46.398;-63.798;2023-01-29T08:56:49;102502.88;;;-2.99;61.58
66703;BME280;60933;46.398;-63.798;2023-01-29T08:59:15;102515.41;;;-3.00;62.14
66703;BME280;60933;46.398;-63.798;2023-01-29T09:01:42;102505.13;;;-3.04;63.15
66703;BME280;60933;46.398;-63.798;2023-01-29T09:04:07;102525.34;;;-3.04;63.10
66703;BME280;60933;46.398;-63.798;2023-01-29T09:06:34;102510.50;;;-3.12;63.11
66703;BME280;60933;46.398;-63.798;2023-01-29T09:09:00;102537.69;;;-3.08;64.46
66703;BME280;60933;46.398;-63.798;2023-01-29T09:11:26;102537.53;;;-3.11;64.26
66703;BME280;60933;46.398;-63.798;2023-01-29T09:13:52;102534.53;;;-3.19;64.76
66703;BME280;60933;46.398;-63.798;2023-01-29T09:16:17;102537.81;;;-3.20;65.23
66703;BME280;60933;46.398;-63.798;2023-01-29T09:18:44;102548.03;;;-3.19;65.59
66703;BME280;60933;46.398;-63.798;2023-01-29T09:21:10;102538.50;;;-3.23;66.60
66703;BME280;60933;46.398;-63.798;2023-01-29T09:23:36;102554.56;;;-3.22;67.03
66703;BME280;60933;46.398;-63.798;2023-01-29T09:26:02;102561.94;;;-3.25;67.58
66703;BME280;60933;46.398;-63.798;2023-01-29T09:28:28;102564.09;;;-3.31;67.58
66703;BME280;60933;46.398;-63.798;2023-01-29T09:30:54;102568.38;;;-3.30;67.74
66703;BME280;60933;46.398;-63.798;2023-01-29T09:33:20;102566.41;;;-3.35;67.04
66703;BME280;60933;46.398;-63.798;2023-01-29T09:35:46;102577.41;;;-3.34;66.72
66703;BME280;60933;46.398;-63.798;2023-01-29T09:38:13;102573.13;;;-3.35;64.99
66703;BME280;60933;46.398;-63.798;2023-01-29T09:43:48;102581.88;;;-3.43;63.76
66703;BME280;60933;46.398;-63.798;2023-01-29T09:46:34;102594.59;;;-3.42;63.19
66703;BME280;60933;46.398;-63.798;2023-01-29T09:49:19;102581.50;;;-3.50;61.87
66703;BME280;60933;46.398;-63.798;2023-01-29T09:51:50;102583.81;;;-3.53;61.66
66703;BME280;60933;46.398;-63.798;2023-01-29T09:56:44;102591.09;;;-3.57;61.20
66703;BME280;60933;46.398;-63.798;2023-01-29T09:59:12;102595.88;;;-3.62;60.53
66703;BME280;60933;46.398;-63.798;2023-01-29T10:01:58;102613.44;;;-3.63;60.31
66703;BME280;60933;46.398;-63.798;2023-01-29T10:15:31;102638.09;;;-3.73;61.23
66703;BME280;60933;46.398;-63.798;2023-01-29T10:23:17;102625.25;;;-3.89;62.11
66703;BME280;60933;46.398;-63.798;2023-01-29T10:25:47;102634.78;;;-3.85;62.73
66703;BME280;60933;46.398;-63.798;2023-01-29T10:28:37;102637.09;;;-3.88;62.59
66703;BME280;60933;46.398;-63.798;2023-01-29T10:31:34;102643.28;;;-3.97;62.96
66703;BME280;60933;46.398;-63.798;2023-01-29T10:39:20;102673.53;;;-4.10;64.50
66703;BME280;60933;46.398;-63.798;2023-01-29T10:44:36;102680.84;;;-4.26;65.11
66703;BME280;60933;46.398;-63.798;2023-01-29T10:50:04;102704.22;;;-4.29;66.04
66703;BME280;60933;46.398;-63.798;2023-01-29T11:00:44;102737.66;;;-4.69;68.34
66703;BME280;60933;46.398;-63.798;2023-01-29T11:03:36;102743.16;;;-4.86;68.26
66703;BME280;60933;46.398;-63.798;2023-01-29T11:06:21;102761.47;;;-5.01;68.83
66703;BME280;60933;46.398;-63.798;2023-01-29T11:14:30;102781.91;;;-5.32;69.27
66703;BME280;60933;46.398;-63.798;2023-01-29T11:16:59;102777.94;;;-5.40;69.76
66703;BME280;60933;46.398;-63.798;2023-01-29T11:19:51;102777.25;;;-5.49;69.25
66703;BME280;60933;46.398;-63.798;2023-01-29T11:22:24;102791.91;;;-5.56;69.03
66703;BME280;60933;46.398;-63.798;2023-01-29T11:27:33;102783.47;;;-5.68;69.32
66703;BME280;60933;46.398;-63.798;2023-01-29T11:30:00;102782.22;;;-5.73;69.55
66703;BME280;60933;46.398;-63.798;2023-01-29T11:32:32;102785.28;;;-5.77;69.43
66703;BME280;60933;46.398;-63.798;2023-01-29T11:35:05;102782.31;;;-5.83;70.06
66703;BME280;60933;46.398;-63.798;2023-01-29T11:37:45;102780.31;;;-5.88;69.45
66703;BME280;60933;46.398;-63.798;2023-01-29T11:42:44;102769.81;;;-5.94;70.22
66703;BME280;60933;46.398;-63.798;2023-01-29T11:45:31;102785.44;;;-5.98;70.43
66703;BME280;60933;46.398;-63.798;2023-01-29T11:47:59;102786.75;;;-6.03;70.18
66703;BME280;60933;46.398;-63.798;2023-01-29T11:50:28;102790.16;;;-6.02;69.90
66703;BME280;60933;46.398;-63.798;2023-01-29T11:52:58;102794.81;;;-6.07;70.36
66703;BME280;60933;46.398;-63.798;2023-01-29T11:55:29;102801.38;;;-6.09;69.59
66703;BME280;60933;46.398;-63.798;2023-01-29T11:58:26;102807.91;;;-6.11;69.33
66703;BME280;60933;46.398;-63.798;2023-01-29T12:00:55;102804.94;;;-6.17;69.05
66703;BME280;60933;46.398;-63.798;2023-01-29T12:03:43;102802.16;;;-6.21;68.90
66703;BME280;60933;46.398;-63.798;2023-01-29T12:06:26;102807.19;;;-6.21;69.03
66703;BME280;60933;46.398;-63.798;2023-01-29T12:08:58;102812.22;;;-6.21;68.81
66703;BME280;60933;46.398;-63.798;2023-01-29T12:11:28;102827.31;;;-6.21;68.44
66703;BME280;60933;46.398;-63.798;2023-01-29T12:13:59;102826.84;;;-6.27;68.20
66703;BME280;60933;46.398;-63.798;2023-01-29T12:16:38;102821.81;;;-6.27;67.71
66703;BME280;60933;46.398;-63.798;2023-01-29T12:21:52;102824.84;;;-6.31;67.34
66703;BME280;60933;46.398;-63.798;2023-01-29T12:24:52;102836.78;;;-6.28;67.45
66703;BME280;60933;46.398;-63.798;2023-01-29T12:32:52;102830.91;;;-6.39;66.65
66703;BME280;60933;46.398;-63.798;2023-01-29T12:35:32;102830.91;;;-6.39;66.02
66703;BME280;60933;46.398;-63.798;2023-01-29T12:41:19;102835.69;;;-6.42;65.92
66703;BME280;60933;46.398;-63.798;2023-01-29T12:43:52;102843.50;;;-6.49;65.09
66703;BME280;60933;46.398;-63.798;2023-01-29T12:46:36;102868.16;;;-6.45;64.90
66703;BME280;60933;46.398;-63.798;2023-01-29T12:49:14;102867.25;;;-6.46;64.79
66703;BME280;60933;46.398;-63.798;2023-01-29T12:52:01;102877.94;;;-6.48;63.97
66703;BME280;60933;46.398;-63.798;2023-01-29T12:54:37;102879.69;;;-6.47;64.38
66703;BME280;60933;46.398;-63.798;2023-01-29T12:57:09;102879.16;;;-6.43;64.29
66703;BME280;60933;46.398;-63.798;2023-01-29T12:59:44;102874.94;;;-6.44;63.90
66703;BME280;60933;46.398;-63.798;2023-01-29T13:05:02;102872.81;;;-6.50;62.81
66703;BME280;60933;46.398;-63.798;2023-01-29T13:07:37;102884.13;;;-6.55;62.48
66703;BME280;60933;46.398;-63.798;2023-01-29T13:10:12;102888.53;;;-6.53;62.67
66703;BME280;60933;46.398;-63.798;2023-01-29T13:13:00;102893.53;;;-6.53;61.79
66703;BME280;60933;46.398;-63.798;2023-01-29T13:15:29;102895.53;;;-6.48;61.35
66703;BME280;60933;46.398;-63.798;2023-01-29T13:20:42;102886.13;;;-6.18;62.20
66703;BME280;60933;46.398;-63.798;2023-01-29T13:23:27;102879.06;;;-6.12;60.59
66703;BME280;60933;46.398;-63.798;2023-01-29T13:25:56;102892.69;;;-5.98;58.69
66703;BME280;60933;46.398;-63.798;2023-01-29T13:28:24;102892.00;;;-6.08;55.08
66703;BME280;60933;46.398;-63.798;2023-01-29T13:33:36;102904.00;;;-6.26;54.98
66703;BME280;60933;46.398;-63.798;2023-01-29T13:36:03;102914.53;;;-6.20;54.17
66703;BME280;60933;46.398;-63.798;2023-01-29T13:38:31;102922.44;;;-6.15;54.04
66703;BME280;60933;46.398;-63.798;2023-01-29T13:41:03;102936.41;;;-6.08;53.17
66703;BME280;60933;46.398;-63.798;2023-01-29T13:43:35;102941.66;;;-6.05;53.13
66703;BME280;60933;46.398;-63.798;2023-01-29T13:46:13;102950.19;;;-6.03;52.17
66703;BME280;60933;46.398;-63.798;2023-01-29T13:48:44;102940.84;;;-5.94;53.38
66703;BME280;60933;46.398;-63.798;2023-01-29T13:51:18;102919.22;;;-5.92;53.93
66703;BME280;60933;46.398;-63.798;2023-01-29T13:54:05;102928.34;;;-5.82;52.63
66703;BME280;60933;46.398;-63.798;2023-01-29T13:59:01;102927.56;;;-5.81;51.29
66703;BME280;60933;46.398;-63.798;2023-01-29T14:07:00;102935.53;;;-5.42;50.94
66703;BME280;60933;46.398;-63.798;2023-01-29T14:17:17;102942.31;;;-5.41;47.93
66703;BME280;60933;46.398;-63.798;2023-01-29T14:19:53;102956.38;;;-5.33;48.98
66703;BME280;60933;46.398;-63.798;2023-01-29T14:22:25;102947.59;;;-5.38;48.26
66703;BME280;60933;46.398;-63.798;2023-01-29T14:25:04;102941.94;;;-5.35;48.00
66703;BME280;60933;46.398;-63.798;2023-01-29T14:27:31;102955.88;;;-5.29;47.68
66703;BME280;60933;46.398;-63.798;2023-01-29T14:30:05;102945.50;;;-5.21;47.64
66703;BME280;60933;46.398;-63.798;2023-01-29T14:32:32;102943.66;;;-5.12;46.81
66703;BME280;60933;46.398;-63.798;2023-01-29T14:34:59;102949.16;;;-4.94;47.86
66703;BME280;60933;46.398;-63.798;2023-01-29T14:37:32;102953.94;;;-4.87;46.85
66703;BME280;60933;46.398;-63.798;2023-01-29T14:43:15;102952.44;;;-4.49;48.07
66703;BME280;60933;46.398;-63.798;2023-01-29T14:45:47;102946.56;;;-4.38;47.34
66703;BME280;60933;46.398;-63.798;2023-01-29T14:48:52;102953.13;;;-4.28;45.09
66703;BME280;60933;46.398;-63.798;2023-01-29T14:51:19;102960.34;;;-4.21;45.64
66703;BME280;60933;46.398;-63.798;2023-01-29T14:54:24;102955.31;;;-4.09;45.49
66703;BME280;60933;46.398;-63.798;2023-01-29T14:57:00;102969.53;;;-3.98;45.09
66703;BME280;60933;46.398;-63.798;2023-01-29T14:59:33;102974.16;;;-3.92;45.15
66703;BME280;60933;46.398;-63.798;2023-01-29T15:02:18;102962.44;;;-3.91;44.53
66703;BME280;60933;46.398;-63.798;2023-01-29T15:04:49;102969.78;;;-3.94;44.40
66703;BME280;60933;46.398;-63.798;2023-01-29T15:07:28;102976.75;;;-3.78;45.43
66703;BME280;60933;46.398;-63.798;2023-01-29T15:10:10;102974.56;;;-3.74;44.17
66703;BME280;60933;46.398;-63.798;2023-01-29T15:12:51;102965.53;;;-3.58;44.15
66703;BME280;60933;46.398;-63.798;2023-01-29T15:15:45;102965.81;;;-3.42;44.16
66703;BME280;60933;46.398;-63.798;2023-01-29T15:18:19;102964.13;;;-3.29;43.48
66703;BME280;60933;46.398;-63.798;2023-01-29T15:21:04;102956.41;;;-3.19;42.46
66703;BME280;60933;46.398;-63.798;2023-01-29T15:23:33;102956.66;;;-3.03;43.17
66703;BME280;60933;46.398;-63.798;2023-01-29T15:26:03;102968.63;;;-3.00;42.00
66703;BME280;60933;46.398;-63.798;2023-01-29T15:28:31;102961.97;;;-2.86;41.71